sensor_id;sensor_type;location;lat;lon;timestamp;temperature;humidity
7970;DHT22;4030;52.362;9.206;2023-04-25T00:03:52;12.30;67.90
7970;DHT22;4030;52.362;9.206;2023-04-25T00:06:17;12.20;67.90
7970;DHT22;4030;52.362;9.206;2023-04-25T00:11:09;12.20;68.00
7970;DHT22;4030;52.362;9.206;2023-04-25T00:20:58;12.10;68.30
7970;DHT22;4030;52.362;9.206;2023-04-25T00:23:24;12.20;68.50
7970;DHT22;4030;52.362;9.206;2023-04-25T00:25:50;12.10;68.50
7970;DHT22;4030;52.362;9.206;2023-04-25T00:28:16;12.10;68.40
7970;DHT22;4030;52.362;9.206;2023-04-25T00:30:42;12.10;68.40
7970;DHT22;4030;52.362;9.206;2023-04-25T00:33:08;12.10;68.50
7970;DHT22;4030;52.362;9.206;2023-04-25T00:35:35;12.10;68.60
7970;DHT22;4030;52.362;9.206;2023-04-25T00:38:00;12.10;68.50
7970;DHT22;4030;52.362;9.206;2023-04-25T00:40:27;12.10;68.60
7970;DHT22;4030;52.362;9.206;2023-04-25T00:42:53;12.10;68.60
7970;DHT22;4030;52.362;9.206;2023-04-25T00:45:19;12.20;68.70
7970;DHT22;4030;52.362;9.206;2023-04-25T00:47:46;12.10;68.60
7970;DHT22;4030;52.362;9.206;2023-04-25T00:52:40;12.10;68.60
7970;DHT22;4030;52.362;9.206;2023-04-25T00:55:09;12.00;68.60
7970;DHT22;4030;52.362;9.206;2023-04-25T00:57:35;12.00;68.60
7970;DHT22;4030;52.362;9.206;2023-04-25T01:00:02;12.00;68.60
7970;DHT22;4030;52.362;9.206;2023-04-25T01:04:55;12.10;68.80
7970;DHT22;4030;52.362;9.206;2023-04-25T01:14:39;12.00;69.00
7970;DHT22;4030;52.362;9.206;2023-04-25T01:17:05;11.90;68.90
7970;DHT22;4030;52.362;9.206;2023-04-25T01:19:32;12.00;69.10
7970;DHT22;4030;52.362;9.206;2023-04-25T01:21:58;11.90;69.00
7970;DHT22;4030;52.362;9.206;2023-04-25T01:24:24;12.00;69.20
7970;DHT22;4030;52.362;9.206;2023-04-25T01:26:50;11.90;69.10
7970;DHT22;4030;52.362;9.206;2023-04-25T01:29:20;11.90;69.10
7970;DHT22;4030;52.362;9.206;2023-04-25T01:31:46;11.90;69.30
7970;DHT22;4030;52.362;9.206;2023-04-25T01:34:13;11.90;69.30
7970;DHT22;4030;52.362;9.206;2023-04-25T01:36:39;11.80;69.30
7970;DHT22;4030;52.362;9.206;2023-04-25T01:41:32;11.90;69.50
7970;DHT22;4030;52.362;9.206;2023-04-25T01:51:18;11.80;70.10
7970;DHT22;4030;52.362;9.206;2023-04-25T01:53:44;11.90;70.30
7970;DHT22;4030;52.362;9.206;2023-04-25T01:56:10;11.90;70.50
7970;DHT22;4030;52.362;9.206;2023-04-25T02:03:29;11.80;70.50
7970;DHT22;4030;52.362;9.206;2023-04-25T02:05:56;11.80;70.70
7970;DHT22;4030;52.362;9.206;2023-04-25T02:08:21;11.90;70.70
7970;DHT22;4030;52.362;9.206;2023-04-25T02:10:47;11.80;70.70
7970;DHT22;4030;52.362;9.206;2023-04-25T02:13:13;11.80;70.60
7970;DHT22;4030;52.362;9.206;2023-04-25T02:20:31;11.80;70.70
7970;DHT22;4030;52.362;9.206;2023-04-25T02:22:57;11.80;70.80
7970;DHT22;4030;52.362;9.206;2023-04-25T02:25:23;11.80;70.90
7970;DHT22;4030;52.362;9.206;2023-04-25T02:30:16;11.80;70.80
7970;DHT22;4030;52.362;9.206;2023-04-25T02:32:42;11.80;70.90
7970;DHT22;4030;52.362;9.206;2023-04-25T02:35:08;11.80;70.90
7970;DHT22;4030;52.362;9.206;2023-04-25T02:37:35;11.80;70.90
7970;DHT22;4030;52.362;9.206;2023-04-25T02:40:03;11.80;70.90
7970;DHT22;4030;52.362;9.206;2023-04-25T02:42:30;11.80;70.90
7970;DHT22;4030;52.362;9.206;2023-04-25T02:44:56;11.80;70.90
7970;DHT22;4030;52.362;9.206;2023-04-25T02:47:21;11.70;70.80
7970;DHT22;4030;52.362;9.206;2023-04-25T02:54:40;11.70;70.80
7970;DHT22;4030;52.362;9.206;2023-04-25T02:57:06;11.70;70.80
7970;DHT22;4030;52.362;9.206;2023-04-25T02:59:32;11.70;70.90
7970;DHT22;4030;52.362;9.206;2023-04-25T03:01:58;11.60;70.80
7970;DHT22;4030;52.362;9.206;2023-04-25T03:04:24;11.70;70.90
7970;DHT22;4030;52.362;9.206;2023-04-25T03:06:50;11.70;70.80
7970;DHT22;4030;52.362;9.206;2023-04-25T03:11:43;11.70;70.90
7970;DHT22;4030;52.362;9.206;2023-04-25T03:14:09;11.70;71.00
7970;DHT22;4030;52.362;9.206;2023-04-25T03:16:35;11.60;70.80
7970;DHT22;4030;52.362;9.206;2023-04-25T03:19:02;11.70;70.90
7970;DHT22;4030;52.362;9.206;2023-04-25T03:21:29;11.60;70.70
7970;DHT22;4030;52.362;9.206;2023-04-25T03:23:57;11.60;70.80
7970;DHT22;4030;52.362;9.206;2023-04-25T03:26:22;11.60;70.90
7970;DHT22;4030;52.362;9.206;2023-04-25T03:36:07;11.60;70.90
7970;DHT22;4030;52.362;9.206;2023-04-25T03:38:33;11.50;70.90
7970;DHT22;4030;52.362;9.206;2023-04-25T03:43:25;11.60;71.00
7970;DHT22;4030;52.362;9.206;2023-04-25T03:45:51;11.60;71.20
7970;DHT22;4030;52.362;9.206;2023-04-25T04:10:12;11.60;71.00
7970;DHT22;4030;52.362;9.206;2023-04-25T04:12:38;11.60;71.00
7970;DHT22;4030;52.362;9.206;2023-04-25T04:15:04;11.50;70.80
7970;DHT22;4030;52.362;9.206;2023-04-25T04:17:31;11.50;70.80
7970;DHT22;4030;52.362;9.206;2023-04-25T04:19:57;11.50;70.80
7970;DHT22;4030;52.362;9.206;2023-04-25T04:22:23;11.50;70.70
7970;DHT22;4030;52.362;9.206;2023-04-25T04:24:49;11.50;70.80
7970;DHT22;4030;52.362;9.206;2023-04-25T04:27:17;11.50;70.70
7970;DHT22;4030;52.362;9.206;2023-04-25T04:29:43;11.50;70.70
7970;DHT22;4030;52.362;9.206;2023-04-25T04:32:09;11.50;70.70
7970;DHT22;4030;52.362;9.206;2023-04-25T04:34:35;11.50;70.70
7970;DHT22;4030;52.362;9.206;2023-04-25T04:37:01;11.50;70.70
7970;DHT22;4030;52.362;9.206;2023-04-25T04:39:26;11.50;70.60
7970;DHT22;4030;52.362;9.206;2023-04-25T04:44:18;11.50;70.40
7970;DHT22;4030;52.362;9.206;2023-04-25T04:46:45;11.40;70.30
7970;DHT22;4030;52.362;9.206;2023-04-25T04:49:12;11.50;70.30
7970;DHT22;4030;52.362;9.206;2023-04-25T04:51:39;11.50;70.30
7970;DHT22;4030;52.362;9.206;2023-04-25T04:54:06;11.60;70.40
7970;DHT22;4030;52.362;9.206;2023-04-25T04:56:32;11.50;70.30
7970;DHT22;4030;52.362;9.206;2023-04-25T04:58:58;11.50;70.20
7970;DHT22;4030;52.362;9.206;2023-04-25T05:01:25;11.50;70.20
7970;DHT22;4030;52.362;9.206;2023-04-25T05:03:52;11.50;70.10
7970;DHT22;4030;52.362;9.206;2023-04-25T05:06:20;11.50;70.10
7970;DHT22;4030;52.362;9.206;2023-04-25T05:11:12;11.50;70.10
7970;DHT22;4030;52.362;9.206;2023-04-25T05:13:38;11.60;70.20
7970;DHT22;4030;52.362;9.206;2023-04-25T05:16:03;11.60;70.10
7970;DHT22;4030;52.362;9.206;2023-04-25T05:35:32;11.70;69.90
7970;DHT22;4030;52.362;9.206;2023-04-25T05:47:42;11.70;69.60
7970;DHT22;4030;52.362;9.206;2023-04-25T05:50:08;11.70;69.60
7970;DHT22;4030;52.362;9.206;2023-04-25T05:52:34;11.70;69.50
7970;DHT22;4030;52.362;9.206;2023-04-25T05:57:26;11.70;69.50
7970;DHT22;4030;52.362;9.206;2023-04-25T05:59:53;11.80;69.80
7970;DHT22;4030;52.362;9.206;2023-04-25T06:02:20;11.80;69.60
7970;DHT22;4030;52.362;9.206;2023-04-25T06:04:48;11.80;69.70
7970;DHT22;4030;52.362;9.206;2023-04-25T06:14:36;11.90;69.50
7970;DHT22;4030;52.362;9.206;2023-04-25T06:17:02;11.90;69.70
7970;DHT22;4030;52.362;9.206;2023-04-25T06:19:35;12.00;69.90
7970;DHT22;4030;52.362;9.206;2023-04-25T06:22:01;12.00;69.60
7970;DHT22;4030;52.362;9.206;2023-04-25T06:24:27;12.00;69.70
7970;DHT22;4030;52.362;9.206;2023-04-25T06:26:53;12.10;69.80
7970;DHT22;4030;52.362;9.206;2023-04-25T06:29:20;12.10;69.60
7970;DHT22;4030;52.362;9.206;2023-04-25T06:31:45;12.00;69.60
7970;DHT22;4030;52.362;9.206;2023-04-25T06:34:11;12.10;69.60
7970;DHT22;4030;52.362;9.206;2023-04-25T06:41:30;12.30;69.30
7970;DHT22;4030;52.362;9.206;2023-04-25T06:46:21;12.40;69.00
7970;DHT22;4030;52.362;9.206;2023-04-25T06:51:13;12.30;68.70
7970;DHT22;4030;52.362;9.206;2023-04-25T06:53:39;12.40;68.70
7970;DHT22;4030;52.362;9.206;2023-04-25T06:56:05;12.50;68.70
7970;DHT22;4030;52.362;9.206;2023-04-25T06:58:31;12.50;68.90
7970;DHT22;4030;52.362;9.206;2023-04-25T07:00:57;12.50;68.80
7970;DHT22;4030;52.362;9.206;2023-04-25T07:03:23;12.60;68.90
7970;DHT22;4030;52.362;9.206;2023-04-25T07:05:49;12.50;68.60
7970;DHT22;4030;52.362;9.206;2023-04-25T07:08:15;12.60;68.50
7970;DHT22;4030;52.362;9.206;2023-04-25T07:10:41;12.60;68.30
7970;DHT22;4030;52.362;9.206;2023-04-25T07:13:06;12.60;68.10
7970;DHT22;4030;52.362;9.206;2023-04-25T07:25:17;12.70;67.50
7970;DHT22;4030;52.362;9.206;2023-04-25T07:30:09;12.70;67.20
7970;DHT22;4030;52.362;9.206;2023-04-25T07:32:35;12.80;67.20
7970;DHT22;4030;52.362;9.206;2023-04-25T07:35:00;12.90;67.40
7970;DHT22;4030;52.362;9.206;2023-04-25T07:44:46;12.90;67.00
7970;DHT22;4030;52.362;9.206;2023-04-25T07:47:12;13.00;67.20
7970;DHT22;4030;52.362;9.206;2023-04-25T07:49:38;13.00;67.20
7970;DHT22;4030;52.362;9.206;2023-04-25T07:54:31;13.20;67.20
7970;DHT22;4030;52.362;9.206;2023-04-25T07:56:58;13.20;67.10
7970;DHT22;4030;52.362;9.206;2023-04-25T07:59:24;13.30;67.20
7970;DHT22;4030;52.362;9.206;2023-04-25T08:01:50;13.40;67.10
7970;DHT22;4030;52.362;9.206;2023-04-25T08:04:16;13.60;67.20
7970;DHT22;4030;52.362;9.206;2023-04-25T08:06:42;13.50;66.50
7970;DHT22;4030;52.362;9.206;2023-04-25T08:09:08;13.80;66.60
7970;DHT22;4030;52.362;9.206;2023-04-25T08:11:35;13.70;66.40
7970;DHT22;4030;52.362;9.206;2023-04-25T08:14:01;13.70;66.30
7970;DHT22;4030;52.362;9.206;2023-04-25T08:16:27;13.80;65.70
7970;DHT22;4030;52.362;9.206;2023-04-25T08:21:19;13.80;65.20
7970;DHT22;4030;52.362;9.206;2023-04-25T08:23:45;13.90;65.40
7970;DHT22;4030;52.362;9.206;2023-04-25T08:26:11;13.90;65.20
7970;DHT22;4030;52.362;9.206;2023-04-25T08:28:36;14.10;65.10
7970;DHT22;4030;52.362;9.206;2023-04-25T08:38:21;14.30;65.00
7970;DHT22;4030;52.362;9.206;2023-04-25T08:40:49;14.30;64.60
7970;DHT22;4030;52.362;9.206;2023-04-25T08:43:18;14.20;64.10
7970;DHT22;4030;52.362;9.206;2023-04-25T08:45:46;14.10;63.60
7970;DHT22;4030;52.362;9.206;2023-04-25T08:48:13;14.10;63.30
7970;DHT22;4030;52.362;9.206;2023-04-25T08:50:51;14.10;63.40
7970;DHT22;4030;52.362;9.206;2023-04-25T08:53:25;14.10;63.80
7970;DHT22;4030;52.362;9.206;2023-04-25T08:55:54;14.30;64.00
7970;DHT22;4030;52.362;9.206;2023-04-25T09:00:48;14.50;63.70
7970;DHT22;4030;52.362;9.206;2023-04-25T09:03:15;14.50;63.50
7970;DHT22;4030;52.362;9.206;2023-04-25T09:08:07;14.80;63.80
7970;DHT22;4030;52.362;9.206;2023-04-25T09:10:34;14.90;63.80
7970;DHT22;4030;52.362;9.206;2023-04-25T09:13:11;15.00;63.80
7970;DHT22;4030;52.362;9.206;2023-04-25T09:15:55;15.10;63.70
7970;DHT22;4030;52.362;9.206;2023-04-25T09:18:23;15.20;63.60
7970;DHT22;4030;52.362;9.206;2023-04-25T09:21:04;15.30;63.40
7970;DHT22;4030;52.362;9.206;2023-04-25T09:23:31;15.40;63.10
7970;DHT22;4030;52.362;9.206;2023-04-25T09:26:07;15.50;62.90
7970;DHT22;4030;52.362;9.206;2023-04-25T09:28:34;15.50;62.70
7970;DHT22;4030;52.362;9.206;2023-04-25T09:31:00;15.70;62.80
7970;DHT22;4030;52.362;9.206;2023-04-25T09:33:31;16.00;63.10
7970;DHT22;4030;52.362;9.206;2023-04-25T09:36:08;16.00;62.80
7970;DHT22;4030;52.362;9.206;2023-04-25T09:38:44;16.20;62.60
7970;DHT22;4030;52.362;9.206;2023-04-25T09:41:11;16.20;62.40
7970;DHT22;4030;52.362;9.206;2023-04-25T09:43:37;16.30;62.00
7970;DHT22;4030;52.362;9.206;2023-04-25T09:46:08;16.10;61.30
7970;DHT22;4030;52.362;9.206;2023-04-25T09:51:10;16.20;60.90
7970;DHT22;4030;52.362;9.206;2023-04-25T09:53:38;16.20;60.70
7970;DHT22;4030;52.362;9.206;2023-04-25T09:56:07;16.20;60.60
7970;DHT22;4030;52.362;9.206;2023-04-25T09:58:35;16.20;60.40
7970;DHT22;4030;52.362;9.206;2023-04-25T10:01:04;16.30;60.20
7970;DHT22;4030;52.362;9.206;2023-04-25T10:03:32;16.60;60.10
7970;DHT22;4030;52.362;9.206;2023-04-25T10:06:01;16.20;59.50
7970;DHT22;4030;52.362;9.206;2023-04-25T10:08:32;16.30;59.30
7970;DHT22;4030;52.362;9.206;2023-04-25T10:11:01;16.40;59.20
7970;DHT22;4030;52.362;9.206;2023-04-25T10:13:32;16.60;59.00
7970;DHT22;4030;52.362;9.206;2023-04-25T10:15:59;16.80;58.80
7970;DHT22;4030;52.362;9.206;2023-04-25T10:18:27;17.10;58.80
7970;DHT22;4030;52.362;9.206;2023-04-25T10:21:01;17.20;58.50
7970;DHT22;4030;52.362;9.206;2023-04-25T10:23:30;17.50;58.40
7970;DHT22;4030;52.362;9.206;2023-04-25T10:25:57;17.70;58.20
7970;DHT22;4030;52.362;9.206;2023-04-25T10:28:24;17.90;58.30
7970;DHT22;4030;52.362;9.206;2023-04-25T10:31:00;18.10;58.40
7970;DHT22;4030;52.362;9.206;2023-04-25T10:33:37;18.10;58.60
7970;DHT22;4030;52.362;9.206;2023-04-25T10:36:15;17.90;58.30
7970;DHT22;4030;52.362;9.206;2023-04-25T10:38:44;17.80;58.00
7970;DHT22;4030;52.362;9.206;2023-04-25T10:41:12;17.70;57.90
7970;DHT22;4030;52.362;9.206;2023-04-25T10:43:42;17.60;57.70
7970;DHT22;4030;52.362;9.206;2023-04-25T10:46:23;17.40;57.40
7970;DHT22;4030;52.362;9.206;2023-04-25T10:51:33;17.10;57.20
7970;DHT22;4030;52.362;9.206;2023-04-25T10:54:05;17.00;57.40
7970;DHT22;4030;52.362;9.206;2023-04-25T10:56:40;16.80;57.30
7970;DHT22;4030;52.362;9.206;2023-04-25T11:01:43;16.50;57.10
7970;DHT22;4030;52.362;9.206;2023-04-25T11:04:32;16.40;57.00
7970;DHT22;4030;52.362;9.206;2023-04-25T11:07:09;16.40;57.00
7970;DHT22;4030;52.362;9.206;2023-04-25T11:09:39;16.40;57.00
7970;DHT22;4030;52.362;9.206;2023-04-25T11:12:08;16.20;56.80
7970;DHT22;4030;52.362;9.206;2023-04-25T11:17:01;16.20;56.70
7970;DHT22;4030;52.362;9.206;2023-04-25T11:19:28;16.10;56.10
7970;DHT22;4030;52.362;9.206;2023-04-25T11:21:58;16.10;56.10
7970;DHT22;4030;52.362;9.206;2023-04-25T11:24:28;16.20;56.30
7970;DHT22;4030;52.362;9.206;2023-04-25T11:29:23;16.10;56.50
7970;DHT22;4030;52.362;9.206;2023-04-25T11:34:18;16.20;56.70
7970;DHT22;4030;52.362;9.206;2023-04-25T11:36:45;16.40;57.20
7970;DHT22;4030;52.362;9.206;2023-04-25T11:41:38;16.70;57.70
7970;DHT22;4030;52.362;9.206;2023-04-25T11:44:04;17.00;57.90
7970;DHT22;4030;52.362;9.206;2023-04-25T11:46:30;17.30;58.00
7970;DHT22;4030;52.362;9.206;2023-04-25T11:48:59;17.60;58.30
7970;DHT22;4030;52.362;9.206;2023-04-25T11:51:25;17.70;58.20
7970;DHT22;4030;52.362;9.206;2023-04-25T11:58:57;18.60;57.60
7970;DHT22;4030;52.362;9.206;2023-04-25T12:01:34;18.90;57.10
7970;DHT22;4030;52.362;9.206;2023-04-25T12:04:20;19.10;56.80
7970;DHT22;4030;52.362;9.206;2023-04-25T12:06:48;19.20;56.10
7970;DHT22;4030;52.362;9.206;2023-04-25T12:09:20;19.20;55.30
7970;DHT22;4030;52.362;9.206;2023-04-25T12:11:54;19.00;55.10
7970;DHT22;4030;52.362;9.206;2023-04-25T12:14:34;18.80;55.20
7970;DHT22;4030;52.362;9.206;2023-04-25T12:17:02;18.70;55.70
7970;DHT22;4030;52.362;9.206;2023-04-25T12:19:34;18.50;55.70
7970;DHT22;4030;52.362;9.206;2023-04-25T12:22:02;18.20;51.50
7970;DHT22;4030;52.362;9.206;2023-04-25T12:24:33;17.90;52.80
7970;DHT22;4030;52.362;9.206;2023-04-25T12:27:01;17.70;54.00
7970;DHT22;4030;52.362;9.206;2023-04-25T12:29:30;17.50;54.00
7970;DHT22;4030;52.362;9.206;2023-04-25T12:31:57;17.40;54.40
7970;DHT22;4030;52.362;9.206;2023-04-25T12:34:24;17.20;54.60
7970;DHT22;4030;52.362;9.206;2023-04-25T12:36:51;17.00;54.50
7970;DHT22;4030;52.362;9.206;2023-04-25T12:39:22;16.90;54.60
7970;DHT22;4030;52.362;9.206;2023-04-25T12:41:50;16.80;54.70
7970;DHT22;4030;52.362;9.206;2023-04-25T12:44:17;16.70;54.90
7970;DHT22;4030;52.362;9.206;2023-04-25T12:46:43;16.60;55.10
7970;DHT22;4030;52.362;9.206;2023-04-25T12:49:09;16.60;55.20
7970;DHT22;4030;52.362;9.206;2023-04-25T12:51:35;16.60;55.30
7970;DHT22;4030;52.362;9.206;2023-04-25T12:54:02;16.70;55.80
7970;DHT22;4030;52.362;9.206;2023-04-25T12:56:30;16.80;56.00
7970;DHT22;4030;52.362;9.206;2023-04-25T12:58:56;17.00;56.30
7970;DHT22;4030;52.362;9.206;2023-04-25T13:01:23;17.20;56.60
7970;DHT22;4030;52.362;9.206;2023-04-25T13:03:49;17.40;56.90
7970;DHT22;4030;52.362;9.206;2023-04-25T13:06:15;17.70;57.10
7970;DHT22;4030;52.362;9.206;2023-04-25T13:08:42;17.90;57.40
7970;DHT22;4030;52.362;9.206;2023-04-25T13:11:08;18.30;57.70
7970;DHT22;4030;52.362;9.206;2023-04-25T13:13:34;18.60;57.60
7970;DHT22;4030;52.362;9.206;2023-04-25T13:16:01;18.90;57.70
7970;DHT22;4030;52.362;9.206;2023-04-25T13:18:28;19.20;57.50
7970;DHT22;4030;52.362;9.206;2023-04-25T13:20:54;19.10;57.40
7970;DHT22;4030;52.362;9.206;2023-04-25T13:23:20;19.00;57.50
7970;DHT22;4030;52.362;9.206;2023-04-25T13:25:46;18.70;57.40
7970;DHT22;4030;52.362;9.206;2023-04-25T13:28:12;18.60;57.40
7970;DHT22;4030;52.362;9.206;2023-04-25T13:30:38;18.40;57.30
7970;DHT22;4030;52.362;9.206;2023-04-25T13:33:04;18.20;57.10
7970;DHT22;4030;52.362;9.206;2023-04-25T13:35:32;18.10;57.00
7970;DHT22;4030;52.362;9.206;2023-04-25T13:37:59;17.90;56.80
7970;DHT22;4030;52.362;9.206;2023-04-25T13:40:25;17.80;56.70
7970;DHT22;4030;52.362;9.206;2023-04-25T13:42:52;17.70;56.40
7970;DHT22;4030;52.362;9.206;2023-04-25T13:45:18;17.70;55.90
7970;DHT22;4030;52.362;9.206;2023-04-25T13:47:45;17.70;55.50
7970;DHT22;4030;52.362;9.206;2023-04-25T13:50:10;17.80;55.30
7970;DHT22;4030;52.362;9.206;2023-04-25T13:57:30;18.10;54.80
7970;DHT22;4030;52.362;9.206;2023-04-25T13:59:56;18.50;54.80
7970;DHT22;4030;52.362;9.206;2023-04-25T14:02:22;18.90;54.30
7970;DHT22;4030;52.362;9.206;2023-04-25T14:04:47;19.30;53.80
7970;DHT22;4030;52.362;9.206;2023-04-25T14:07:14;19.90;53.50
7970;DHT22;4030;52.362;9.206;2023-04-25T14:09:43;20.40;52.90
7970;DHT22;4030;52.362;9.206;2023-04-25T14:12:09;20.90;52.10
7970;DHT22;4030;52.362;9.206;2023-04-25T14:14:35;21.40;51.90
7970;DHT22;4030;52.362;9.206;2023-04-25T14:17:00;21.20;51.50
7970;DHT22;4030;52.362;9.206;2023-04-25T14:19:26;21.30;51.20
7970;DHT22;4030;52.362;9.206;2023-04-25T14:21:52;21.50;50.10
7970;DHT22;4030;52.362;9.206;2023-04-25T14:24:18;21.70;49.00
7970;DHT22;4030;52.362;9.206;2023-04-25T14:26:44;21.80;48.70
7970;DHT22;4030;52.362;9.206;2023-04-25T14:29:10;21.60;48.60
7970;DHT22;4030;52.362;9.206;2023-04-25T14:31:37;21.30;48.10
7970;DHT22;4030;52.362;9.206;2023-04-25T14:34:07;21.10;48.10
7970;DHT22;4030;52.362;9.206;2023-04-25T14:36:33;20.80;47.80
7970;DHT22;4030;52.362;9.206;2023-04-25T14:38:59;20.60;47.50
7970;DHT22;4030;52.362;9.206;2023-04-25T14:41:25;20.30;47.50
7970;DHT22;4030;52.362;9.206;2023-04-25T14:43:51;20.80;46.90
7970;DHT22;4030;52.362;9.206;2023-04-25T14:46:19;22.50;44.40
7970;DHT22;4030;52.362;9.206;2023-04-25T14:48:45;23.40;43.00
7970;DHT22;4030;52.362;9.206;2023-04-25T14:51:12;23.50;43.60
7970;DHT22;4030;52.362;9.206;2023-04-25T14:56:05;22.90;44.30
7970;DHT22;4030;52.362;9.206;2023-04-25T14:58:31;24.00;43.10
7970;DHT22;4030;52.362;9.206;2023-04-25T15:00:56;25.50;40.70
7970;DHT22;4030;52.362;9.206;2023-04-25T15:03:22;26.50;39.20
7970;DHT22;4030;52.362;9.206;2023-04-25T15:05:48;26.40;39.10
7970;DHT22;4030;52.362;9.206;2023-04-25T15:08:13;26.40;39.70
7970;DHT22;4030;52.362;9.206;2023-04-25T15:10:39;25.40;40.50
7970;DHT22;4030;52.362;9.206;2023-04-25T15:13:05;23.20;41.60
7970;DHT22;4030;52.362;9.206;2023-04-25T15:15:31;22.50;43.70
7970;DHT22;4030;52.362;9.206;2023-04-25T15:17:57;21.90;44.50
7970;DHT22;4030;52.362;9.206;2023-04-25T15:20:23;21.30;44.90
7970;DHT22;4030;52.362;9.206;2023-04-25T15:22:48;20.90;45.40
7970;DHT22;4030;52.362;9.206;2023-04-25T15:25:15;20.60;45.90
7970;DHT22;4030;52.362;9.206;2023-04-25T15:27:44;20.30;46.90
7970;DHT22;4030;52.362;9.206;2023-04-25T15:30:14;20.00;47.30
7970;DHT22;4030;52.362;9.206;2023-04-25T15:32:45;19.90;47.70
7970;DHT22;4030;52.362;9.206;2023-04-25T15:35:11;19.90;48.20
7970;DHT22;4030;52.362;9.206;2023-04-25T15:37:38;19.90;48.50
7970;DHT22;4030;52.362;9.206;2023-04-25T15:40:16;20.10;48.70
7970;DHT22;4030;52.362;9.206;2023-04-25T15:42:44;20.40;47.80
7970;DHT22;4030;52.362;9.206;2023-04-25T15:45:16;20.50;47.10
7970;DHT22;4030;52.362;9.206;2023-04-25T15:47:43;20.40;46.70
7970;DHT22;4030;52.362;9.206;2023-04-25T15:50:10;20.30;46.80
7970;DHT22;4030;52.362;9.206;2023-04-25T15:52:36;20.30;47.00
7970;DHT22;4030;52.362;9.206;2023-04-25T15:55:03;20.40;47.00
7970;DHT22;4030;52.362;9.206;2023-04-25T15:57:32;20.50;46.90
7970;DHT22;4030;52.362;9.206;2023-04-25T15:59:58;21.00;46.40
7970;DHT22;4030;52.362;9.206;2023-04-25T16:02:24;21.40;45.40
7970;DHT22;4030;52.362;9.206;2023-04-25T16:04:50;21.30;45.60
7970;DHT22;4030;52.362;9.206;2023-04-25T16:07:16;20.90;46.00
7970;DHT22;4030;52.362;9.206;2023-04-25T16:09:42;20.50;46.40
7970;DHT22;4030;52.362;9.206;2023-04-25T16:12:09;20.00;46.80
7970;DHT22;4030;52.362;9.206;2023-04-25T16:14:35;19.60;47.10
7970;DHT22;4030;52.362;9.206;2023-04-25T16:17:01;19.30;47.40
7970;DHT22;4030;52.362;9.206;2023-04-25T16:19:27;19.10;47.70
7970;DHT22;4030;52.362;9.206;2023-04-25T16:21:53;18.80;47.80
7970;DHT22;4030;52.362;9.206;2023-04-25T16:24:19;18.80;48.10
7970;DHT22;4030;52.362;9.206;2023-04-25T16:26:44;18.60;48.20
7970;DHT22;4030;52.362;9.206;2023-04-25T16:29:10;18.40;48.30
7970;DHT22;4030;52.362;9.206;2023-04-25T16:31:37;18.30;48.40
7970;DHT22;4030;52.362;9.206;2023-04-25T16:34:03;18.30;48.70
7970;DHT22;4030;52.362;9.206;2023-04-25T16:36:29;18.10;48.90
7970;DHT22;4030;52.362;9.206;2023-04-25T16:38:58;18.00;49.10
7970;DHT22;4030;52.362;9.206;2023-04-25T16:41:26;17.80;49.20
7970;DHT22;4030;52.362;9.206;2023-04-25T16:43:52;17.70;49.40
7970;DHT22;4030;52.362;9.206;2023-04-25T16:46:18;17.60;49.10
7970;DHT22;4030;52.362;9.206;2023-04-25T16:48:45;17.50;49.10
7970;DHT22;4030;52.362;9.206;2023-04-25T16:51:12;17.50;49.30
7970;DHT22;4030;52.362;9.206;2023-04-25T16:56:04;17.40;49.20
7970;DHT22;4030;52.362;9.206;2023-04-25T16:58:32;17.40;49.20
7970;DHT22;4030;52.362;9.206;2023-04-25T17:00:57;17.30;48.90
7970;DHT22;4030;52.362;9.206;2023-04-25T17:05:50;17.10;49.30
7970;DHT22;4030;52.362;9.206;2023-04-25T17:10:45;16.90;49.60
7970;DHT22;4030;52.362;9.206;2023-04-25T17:13:10;16.80;49.60
7970;DHT22;4030;52.362;9.206;2023-04-25T17:15:36;16.80;49.70
7970;DHT22;4030;52.362;9.206;2023-04-25T17:20:28;16.60;49.80
7970;DHT22;4030;52.362;9.206;2023-04-25T17:25:21;16.60;50.00
7970;DHT22;4030;52.362;9.206;2023-04-25T17:27:46;16.60;50.00
7970;DHT22;4030;52.362;9.206;2023-04-25T17:30:12;16.50;49.90
7970;DHT22;4030;52.362;9.206;2023-04-25T17:35:05;16.60;49.80
7970;DHT22;4030;52.362;9.206;2023-04-25T17:37:31;16.60;49.90
7970;DHT22;4030;52.362;9.206;2023-04-25T17:39:56;16.50;49.80
7970;DHT22;4030;52.362;9.206;2023-04-25T17:42:22;16.50;49.90
7970;DHT22;4030;52.362;9.206;2023-04-25T17:47:15;16.40;50.00
7970;DHT22;4030;52.362;9.206;2023-04-25T17:49:41;16.40;50.00
7970;DHT22;4030;52.362;9.206;2023-04-25T17:52:07;16.30;50.10
7970;DHT22;4030;52.362;9.206;2023-04-25T17:54:33;16.20;50.00
7970;DHT22;4030;52.362;9.206;2023-04-25T17:59:25;16.10;50.30
7970;DHT22;4030;52.362;9.206;2023-04-25T18:01:52;16.00;50.30
7970;DHT22;4030;52.362;9.206;2023-04-25T18:04:18;15.90;50.40
7970;DHT22;4030;52.362;9.206;2023-04-25T18:06:43;15.90;50.40
7970;DHT22;4030;52.362;9.206;2023-04-25T18:09:09;15.80;50.40
7970;DHT22;4030;52.362;9.206;2023-04-25T18:11:53;15.80;50.50
7970;DHT22;4030;52.362;9.206;2023-04-25T18:14:19;15.70;50.60
7970;DHT22;4030;52.362;9.206;2023-04-25T18:16:51;15.70;50.50
7970;DHT22;4030;52.362;9.206;2023-04-25T18:19:18;15.50;50.50
7970;DHT22;4030;52.362;9.206;2023-04-25T18:21:51;15.60;50.70
7970;DHT22;4030;52.362;9.206;2023-04-25T18:24:22;15.50;50.60
7970;DHT22;4030;52.362;9.206;2023-04-25T18:26:51;15.40;50.80
7970;DHT22;4030;52.362;9.206;2023-04-25T18:29:19;15.40;50.70
7970;DHT22;4030;52.362;9.206;2023-04-25T18:31:46;15.20;50.70
7970;DHT22;4030;52.362;9.206;2023-04-25T18:34:12;15.30;50.60
7970;DHT22;4030;52.362;9.206;2023-04-25T18:39:04;15.20;50.80
7970;DHT22;4030;52.362;9.206;2023-04-25T18:41:33;15.10;50.60
7970;DHT22;4030;52.362;9.206;2023-04-25T18:46:29;15.10;50.70
7970;DHT22;4030;52.362;9.206;2023-04-25T18:48:56;15.00;50.70
7970;DHT22;4030;52.362;9.206;2023-04-25T18:51:23;15.10;50.70
7970;DHT22;4030;52.362;9.206;2023-04-25T18:53:49;15.00;50.70
7970;DHT22;4030;52.362;9.206;2023-04-25T18:56:16;14.90;50.70
7970;DHT22;4030;52.362;9.206;2023-04-25T18:58:43;14.90;50.80
7970;DHT22;4030;52.362;9.206;2023-04-25T19:06:01;14.80;50.90
7970;DHT22;4030;52.362;9.206;2023-04-25T19:08:27;14.70;50.90
7970;DHT22;4030;52.362;9.206;2023-04-25T19:10:53;14.70;51.10
7970;DHT22;4030;52.362;9.206;2023-04-25T19:13:20;14.70;51.00
7970;DHT22;4030;52.362;9.206;2023-04-25T19:15:46;14.60;51.00
7970;DHT22;4030;52.362;9.206;2023-04-25T19:18:12;14.60;51.10
7970;DHT22;4030;52.362;9.206;2023-04-25T19:20:41;14.50;50.90
7970;DHT22;4030;52.362;9.206;2023-04-25T19:23:08;14.50;51.00
7970;DHT22;4030;52.362;9.206;2023-04-25T19:25:34;14.50;51.10
7970;DHT22;4030;52.362;9.206;2023-04-25T19:28:01;14.40;51.00
7970;DHT22;4030;52.362;9.206;2023-04-25T19:30:27;14.40;50.90
7970;DHT22;4030;52.362;9.206;2023-04-25T19:32:56;14.40;50.90
7970;DHT22;4030;52.362;9.206;2023-04-25T19:35:22;14.40;50.90
7970;DHT22;4030;52.362;9.206;2023-04-25T19:37:48;14.30;50.80
7970;DHT22;4030;52.362;9.206;2023-04-25T19:40:16;14.20;50.70
7970;DHT22;4030;52.362;9.206;2023-04-25T19:42:43;14.10;50.60
7970;DHT22;4030;52.362;9.206;2023-04-25T19:45:09;14.20;50.70
7970;DHT22;4030;52.362;9.206;2023-04-25T19:50:06;14.10;50.70
7970;DHT22;4030;52.362;9.206;2023-04-25T19:52:34;14.00;50.70
7970;DHT22;4030;52.362;9.206;2023-04-25T19:55:01;13.90;50.60
7970;DHT22;4030;52.362;9.206;2023-04-25T19:57:30;13.90;50.70